Time;durP1;ratioP1;P1;durP2;ratioP2;P2;SDS_P1;SDS_P2;PMS_P1;PMS_P2;Temp;Humidity;BMP_temperature;BMP_pressure;BME280_temperature;BME280_humidity;BME280_pressure;Samples;Min_cycle;Max_cycle;Signal;HPM_P1;HPM_P2
2023/12/12 00:01:11;;;;;;;8.05;2.63;;;;;;;13.88;100.00;98481.91;6315110;22;20072;-92
2023/12/12 00:03:37;;;;;;;11.32;3.05;;;;;;;13.24;100.00;98384.97;6309956;22;20023;-92
2023/12/12 00:06:10;;;;;;;11.45;2.80;;;;;;;13.55;100.00;98429.03;6318724;22;20030;-92
2023/12/12 00:08:44;;;;;;;8.73;2.58;;;;;;;13.41;100.00;98384.25;6316657;22;20034;-92
2023/12/12 00:11:16;;;;;;;9.43;2.95;;;;;;;14.01;100.00;98488.47;6316999;22;20388;-91
2023/12/12 00:13:45;;;;;;;8.90;2.58;;;;;;;13.92;100.00;98473.72;6317138;22;20019;-90
2023/12/12 00:16:11;;;;;;;5.32;2.00;;;;;;;13.45;100.00;98417.06;6314708;22;20057;-93
2023/12/12 00:18:43;;;;;;;8.50;2.13;;;;;;;14.03;100.00;98516.00;6316324;22;20452;-92
2023/12/12 00:21:14;;;;;;;11.60;2.75;;;;;;;13.53;100.00;98444.28;6316680;22;20014;-90
2023/12/12 00:23:46;;;;;;;6.25;2.55;;;;;;;13.13;100.00;98358.75;6315594;22;20028;-93
2023/12/12 00:26:15;;;;;;;9.23;2.40;;;;;;;13.90;100.00;98472.00;6318909;22;20038;-93
2023/12/12 00:28:45;;;;;;;13.43;2.60;;;;;;;14.22;100.00;98532.03;6318745;22;20022;-92
2023/12/12 00:31:16;;;;;;;9.15;2.45;;;;;;;13.70;100.00;98447.06;6314611;22;20018;-90
2023/12/12 00:33:42;;;;;;;9.00;2.83;;;;;;;14.02;100.00;98482.16;6317170;22;20466;-92
2023/12/12 00:36:22;;;;;;;7.38;2.63;;;;;;;13.38;100.00;98370.16;6316978;22;19999;-92
2023/12/12 00:38:51;;;;;;;9.23;2.53;;;;;;;13.65;100.00;98402.78;6316321;22;20011;-92
2023/12/12 00:41:36;;;;;;;5.75;1.95;;;;;;;13.63;100.00;98426.91;6316562;22;20015;-92
2023/12/12 00:44:14;;;;;;;6.65;2.30;;;;;;;13.52;100.00;98415.84;6316563;22;20103;-92
2023/12/12 00:46:40;;;;;;;9.05;3.05;;;;;;;14.30;100.00;98556.66;6313332;22;20022;-94
2023/12/12 00:49:14;;;;;;;7.10;2.30;;;;;;;13.31;100.00;98377.59;6316108;22;20003;-92
2023/12/12 00:51:59;;;;;;;5.75;2.55;;;;;;;13.32;100.00;98412.25;6318263;22;20015;-91
2023/12/12 00:54:28;;;;;;;10.75;1.90;;;;;;;13.45;100.00;98411.72;6312969;22;20145;-92
2023/12/12 00:57:04;;;;;;;8.05;2.97;;;;;;;13.33;100.00;98395.28;6316311;22;20266;-93
2023/12/12 00:59:33;;;;;;;6.97;2.33;;;;;;;13.40;100.00;98398.53;6316815;22;20021;-92
2023/12/12 01:02:07;;;;;;;12.35;2.65;;;;;;;13.40;100.00;98387.84;6313819;22;20003;-94
2023/12/12 01:04:36;;;;;;;7.90;2.22;;;;;;;13.21;100.00;98381.59;6317684;22;20440;-91
2023/12/12 01:07:08;;;;;;;9.38;2.78;;;;;;;13.47;100.00;98393.81;6318210;22;20027;-91
2023/12/12 01:09:39;;;;;;;8.32;3.20;;;;;;;14.21;100.00;98519.63;6319573;22;20025;-91
2023/12/12 01:12:09;;;;;;;11.00;2.88;;;;;;;13.56;100.00;98394.25;6318476;22;20015;-93
2023/12/12 01:14:47;;;;;;;5.47;1.95;;;;;;;14.43;100.00;98545.38;6318051;22;20444;-93
2023/12/12 01:17:13;;;;;;;5.72;1.92;;;;;;;14.00;100.00;98441.25;6314687;22;20021;-93
2023/12/12 01:19:42;;;;;;;6.97;2.25;;;;;;;14.28;100.00;98498.81;6319196;22;20078;-91
2023/12/12 01:22:12;;;;;;;8.13;1.75;;;;;;;13.50;100.00;98367.81;6319292;22;20019;-92
2023/12/12 01:24:39;;;;;;;6.85;2.00;;;;;;;13.79;100.00;98415.50;6319396;22;20498;-93
2023/12/12 01:27:10;;;;;;;13.18;2.47;;;;;;;13.53;100.00;98409.53;6319958;22;20019;-93
2023/12/12 01:29:38;;;;;;;6.88;2.10;;;;;;;13.49;100.00;98391.94;6319481;22;20456;-91
2023/12/12 01:32:07;;;;;;;8.98;2.70;;;;;;;13.40;100.00;98395.00;6316113;22;20018;-92
2023/12/12 01:34:38;;;;;;;18.77;3.08;;;;;;;13.42;100.00;98380.63;6320483;22;20455;-91
2023/12/12 01:37:04;;;;;;;11.40;2.20;;;;;;;13.82;100.00;98472.38;6320263;22;20019;-92
2023/12/12 01:39:36;;;;;;;9.02;2.10;;;;;;;14.08;100.00;98489.91;6320078;22;20054;-91
2023/12/12 01:42:11;;;;;;;7.57;2.35;;;;;;;13.31;100.00;98357.09;6319121;22;20022;-93
2023/12/12 01:44:37;;;;;;;9.48;2.28;;;;;;;14.23;100.00;98539.16;6319452;22;20488;-91
2023/12/12 01:47:17;;;;;;;10.88;2.90;;;;;;;13.38;100.00;98383.53;6317550;22;20025;-93
2023/12/12 01:49:49;;;;;;;5.75;2.42;;;;;;;13.58;100.00;98396.88;6320150;22;20039;-93
2023/12/12 01:52:16;;;;;;;5.55;2.45;;;;;;;13.95;100.00;98464.69;6346858;22;20041;-92
2023/12/12 01:54:51;;;;;;;4.85;2.35;;;;;;;14.33;100.00;98539.59;6320491;22;20019;-91
2023/12/12 01:57:30;;;;;;;5.38;2.58;;;;;;;13.45;100.00;98391.19;6320861;22;20352;-91
2023/12/12 01:59:56;;;;;;;8.32;1.92;;;;;;;13.61;100.00;98402.06;6320689;22;20101;-92
2023/12/12 02:02:32;;;;;;;7.03;2.00;;;;;;;13.65;100.00;98387.63;6317117;22;20002;-92
2023/12/12 02:05:08;;;;;;;12.70;2.50;;;;;;;13.58;100.00;98369.28;6320598;22;20022;-93
2023/12/12 02:07:40;;;;;;;10.88;2.45;;;;;;;13.73;100.00;98414.00;6319997;22;20018;-92
2023/12/12 02:10:18;;;;;;;14.52;3.65;;;;;;;14.30;100.00;98510.31;6319975;22;20045;-92
2023/12/12 02:12:51;;;;;;;8.77;2.35;;;;;;;13.65;100.00;98413.47;6319816;22;20052;-92
2023/12/12 02:15:20;;;;;;;9.27;2.72;;;;;;;13.61;100.00;98409.22;6316276;22;20015;-92
2023/12/12 02:17:51;;;;;;;7.95;1.83;;;;;;;13.49;100.00;98390.13;6320384;22;20015;-92
2023/12/12 02:20:21;;;;;;;6.45;1.88;;;;;;;14.13;100.00;98501.25;6319769;22;20021;-93
2023/12/12 02:22:51;;;;;;;9.10;3.15;;;;;;;14.20;100.00;98511.66;6316918;22;20334;-92
2023/12/12 02:25:22;;;;;;;6.25;2.33;;;;;;;14.31;100.00;98504.91;6317537;22;20050;-91
2023/12/12 02:27:49;;;;;;;4.18;1.63;;;;;;;14.26;100.00;98479.28;6319161;22;20030;-93
2023/12/12 02:30:20;;;;;;;8.40;2.40;;;;;;;14.29;100.00;98513.91;6316050;22;20041;-91
2023/12/12 02:32:48;;;;;;;11.40;1.95;;;;;;;13.51;100.00;98379.34;6346991;22;20011;-92
2023/12/12 02:35:20;;;;;;;4.68;2.03;;;;;;;13.64;100.00;98377.00;6319637;22;20015;-93
2023/12/12 02:38:03;;;;;;;5.43;1.90;;;;;;;14.22;100.00;98499.09;6319989;22;20011;-93
2023/12/12 02:40:32;;;;;;;10.25;2.53;;;;;;;13.77;100.00;98395.09;6319023;22;20018;-91
2023/12/12 02:43:01;;;;;;;6.38;3.42;;;;;;;14.26;100.00;98492.66;6318997;22;20352;-90
2023/12/12 02:45:33;;;;;;;7.20;2.50;;;;;;;13.55;100.00;98357.81;6314258;22;20041;-92
2023/12/12 02:47:59;;;;;;;6.75;2.60;;;;;;;14.31;100.00;98493.31;6318048;22;20052;-92
2023/12/12 02:50:31;;;;;;;8.00;2.10;;;;;;;13.54;100.00;98373.91;6319455;22;20471;-91
2023/12/12 02:53:02;;;;;;;6.10;2.10;;;;;;;14.21;100.00;98470.63;6318649;22;20068;-93
2023/12/12 02:55:51;;;;;;;7.72;2.55;;;;;;;13.71;100.00;98384.69;6318525;22;20073;-93
2023/12/12 02:58:34;;;;;;;6.13;2.72;;;;;;;13.51;100.00;98353.53;6314980;22;20386;-94
2023/12/12 03:01:00;;;;;;;8.75;2.35;;;;;;;14.13;100.00;98421.03;6312525;22;20022;-90
2023/12/12 03:03:41;;;;;;;7.07;2.10;;;;;;;14.23;100.00;98436.66;6342838;22;20049;-91
2023/12/12 03:06:09;;;;;;;7.22;2.10;;;;;;;13.92;100.00;98387.28;6314970;22;20023;-90
2023/12/12 03:08:47;;;;;;;9.23;2.42;;;;;;;14.23;100.00;98418.81;6314459;22;20572;-92
2023/12/12 03:11:29;;;;;;;8.20;2.15;;;;;;;13.98;100.00;98390.53;6316358;22;20097;-92
2023/12/12 03:13:57;;;;;;;10.75;1.92;;;;;;;14.01;100.00;98389.53;6315335;22;20018;-92
2023/12/12 03:16:28;;;;;;;11.27;2.50;;;;;;;14.57;100.00;98482.31;6313612;22;20046;-93
2023/12/12 03:18:54;;;;;;;4.80;2.20;;;;;;;14.50;100.00;98475.44;6316985;22;20018;-93
2023/12/12 03:21:20;;;;;;;7.82;2.22;;;;;;;14.68;100.00;98476.44;6318518;22;20014;-92
2023/12/12 03:23:51;;;;;;;8.30;2.53;;;;;;;14.52;100.00;98446.81;6318540;22;20030;-92
2023/12/12 03:26:17;;;;;;;11.50;2.70;;;;;;;14.38;100.00;98420.75;6318920;22;20025;-92
2023/12/12 03:28:50;;;;;;;8.32;2.10;;;;;;;14.60;100.00;98457.19;6319447;22;20106;-93
2023/12/12 03:31:20;;;;;;;8.70;2.38;;;;;;;13.80;100.00;98334.41;6315550;22;20071;-95
2023/12/12 03:33:46;;;;;;;5.22;2.10;;;;;;;13.88;100.00;98341.13;6319733;22;20018;-93
2023/12/12 03:36:13;;;;;;;6.25;2.25;;;;;;;14.12;100.00;98354.28;6318037;22;20031;-91
2023/12/12 03:38:39;;;;;;;5.57;2.63;;;;;;;14.00;100.00;98394.94;6319188;22;20011;-93
2023/12/12 03:41:11;;;;;;;9.95;2.45;;;;;;;14.44;100.00;98448.13;6319154;22;20006;-92
2023/12/12 03:43:37;;;;;;;4.47;1.85;;;;;;;14.30;100.00;98427.41;6318665;22;20021;-92
2023/12/12 03:46:10;;;;;;;7.50;2.08;;;;;;;13.79;100.00;98348.69;6316063;22;20018;-92
2023/12/12 03:48:36;;;;;;;8.80;2.10;;;;;;;13.63;100.00;98368.13;6319147;22;20061;-90
2023/12/12 03:51:02;;;;;;;8.07;2.80;;;;;;;14.24;100.00;98486.53;6317887;22;20046;-91
2023/12/12 03:53:30;;;;;;;11.52;2.88;;;;;;;13.53;100.00;98350.78;6318363;22;20022;-91
2023/12/12 03:55:59;;;;;;;6.95;3.25;;;;;;;13.65;100.00;98352.03;6316929;22;20019;-92
2023/12/12 03:58:29;;;;;;;7.63;2.30;;;;;;;14.26;100.00;98434.69;6316715;22;20042;-91
2023/12/12 04:01:00;;;;;;;9.85;2.92;;;;;;;14.71;100.00;98478.09;6313582;22;20441;-93
2023/12/12 04:03:27;;;;;;;7.82;2.10;;;;;;;14.09;100.00;98382.00;6315166;22;20026;-90
2023/12/12 04:05:56;;;;;;;10.00;2.83;;;;;;;13.91;100.00;98340.13;6314518;22;20015;-92
2023/12/12 04:08:29;;;;;;;5.90;2.28;;;;;;;13.91;100.00;98340.13;6341983;22;20011;-94
2023/12/12 04:10:55;;;;;;;6.43;2.03;;;;;;;13.78;100.00;98318.44;6314552;22;20019;-91
2023/12/12 04:13:24;;;;;;;6.90;2.53;;;;;;;14.75;100.00;98461.81;6313599;22;20042;-91
2023/12/12 04:16:22;;;;;;;12.05;3.20;;;;;;;13.94;100.00;98356.00;6338192;22;20015;-93
2023/12/12 04:18:54;;;;;;;4.78;1.83;;;;;;;14.63;100.00;98442.78;6314817;22;20017;-93
2023/12/12 04:21:28;;;;;;;5.95;2.40;;;;;;;13.90;100.00;98309.84;6314881;22;20105;-92
2023/12/12 04:23:57;;;;;;;3.67;1.63;;;;;;;14.11;100.00;98385.47;6314434;22;20019;-92
2023/12/12 04:26:38;;;;;;;8.85;2.45;;;;;;;14.39;100.00;98413.56;6314313;22;20050;-93
2023/12/12 04:29:07;;;;;;;5.50;1.73;;;;;;;13.86;100.00;98340.34;6314496;22;20010;-92
2023/12/12 04:31:46;;;;;;;6.18;2.25;;;;;;;13.79;100.00;98330.84;6310979;22;20034;-91
2023/12/12 04:34:20;;;;;;;8.82;2.90;;;;;;;13.85;100.00;98343.06;6314362;22;20042;-91
2023/12/12 04:36:52;;;;;;;5.95;2.40;;;;;;;13.68;100.00;98311.78;6315387;22;20018;-92
2023/12/12 04:39:37;;;;;;;11.85;3.42;;;;;;;14.29;100.00;98414.94;6313112;22;20345;-91
2023/12/12 04:42:06;;;;;;;9.32;2.33;;;;;;;13.76;100.00;98321.19;6314356;22;20023;-92
2023/12/12 04:44:40;;;;;;;5.43;2.03;;;;;;;14.17;100.00;98384.31;6314931;22;20019;-93
2023/12/12 04:47:39;;;;;;;5.50;2.00;;;;;;;14.19;100.00;98390.47;6318837;22;20132;-93
2023/12/12 04:50:10;;;;;;;3.63;1.92;;;;;;;14.35;100.00;98420.88;6315067;22;20019;-93
2023/12/12 04:52:36;;;;;;;9.65;2.85;;;;;;;14.05;100.00;98383.13;6316054;22;20003;-93
2023/12/12 04:55:06;;;;;;;8.40;2.17;;;;;;;13.79;100.00;98325.50;6315066;22;20018;-95
2023/12/12 04:57:35;;;;;;;9.23;2.40;;;;;;;13.87;100.00;98336.72;6314904;22;20019;-90
2023/12/12 05:00:14;;;;;;;11.82;2.97;;;;;;;13.94;100.00;98338.19;6315125;22;20053;-91
2023/12/12 05:02:45;;;;;;;6.63;3.10;;;;;;;14.82;100.00;98462.38;6314931;22;20353;-90
2023/12/12 05:05:19;;;;;;;8.43;2.75;;;;;;;14.75;100.00;98471.66;6313093;22;20018;-91
2023/12/12 05:07:45;;;;;;;7.32;2.53;;;;;;;14.20;100.00;98394.00;6313488;22;20095;-90
2023/12/12 05:10:12;;;;;;;7.85;3.70;;;;;;;14.18;100.00;98386.03;6314066;22;20026;-93
2023/12/12 05:12:43;;;;;;;5.47;2.30;;;;;;;13.77;100.00;98340.78;6314744;22;20011;-92
2023/12/12 05:15:09;;;;;;;6.53;2.25;;;;;;;14.68;100.00;98464.84;6311543;22;20080;-93
2023/12/12 05:17:42;;;;;;;;;;;;;;;14.67;100.00;98477.34;6316021;22;20015;-92
2023/12/12 05:20:13;;;;;;;8.52;2.75;;;;;;;14.11;100.00;98373.91;6315156;22;19968;-91
2023/12/12 05:22:50;;;;;;;6.25;2.25;;;;;;;13.97;100.00;98321.13;6314663;22;20015;-93
2023/12/12 05:25:37;;;;;;;4.43;2.55;;;;;;;14.83;100.00;98482.81;6340587;22;20019;-92
2023/12/12 05:28:04;;;;;;;6.72;2.90;;;;;;;14.77;100.00;98485.81;6315412;22;20075;-90
2023/12/12 05:30:31;;;;;;;7.28;2.83;;;;;;;14.36;100.00;98417.28;6340310;22;20762;-91
2023/12/12 05:33:23;;;;;;;9.18;2.65;;;;;;;14.17;100.00;98398.56;6314895;22;20106;-92
2023/12/12 05:35:49;;;;;;;7.35;2.70;;;;;;;14.34;100.00;98416.47;6314124;22;20385;-93
2023/12/12 05:38:21;;;;;;;11.00;2.15;;;;;;;14.82;100.00;98507.88;6315937;22;20077;-92
2023/12/12 05:40:53;;;;;;;7.70;1.95;;;;;;;13.85;100.00;98330.56;6337674;22;20045;-90
2023/12/12 05:43:27;;;;;;;8.07;2.08;;;;;;;13.99;100.00;98359.34;6283729;22;20027;-90
2023/12/12 05:45:59;;;;;;;9.73;3.10;;;;;;;14.05;100.00;98367.06;6281271;22;20388;-89
2023/12/12 05:51:19;;;;;;;5.13;1.83;;;;;;;14.28;100.00;98403.38;6256268;22;20489;-94
2023/12/12 05:53:45;;;;;;;6.47;3.17;;;;;;;13.96;100.00;98365.66;6287158;22;20034;-91
2023/12/12 05:56:13;;;;;;;7.82;2.40;;;;;;;14.88;100.00;98522.78;6314844;22;20019;-93
2023/12/12 05:58:39;;;;;;;5.55;3.20;;;;;;;14.80;100.00;98512.44;6288321;22;20078;-92
2023/12/12 06:01:05;;;;;;;5.72;2.30;;;;;;;14.03;100.00;98384.09;6286776;22;20027;-91
2023/12/12 06:03:34;;;;;;;6.88;1.88;;;;;;;13.90;100.00;98359.75;6287935;22;20012;-92
2023/12/12 06:06:05;;;;;;;6.50;2.38;;;;;;;13.91;100.00;98359.69;6288712;22;20449;-91
2023/12/12 06:08:33;;;;;;;8.73;2.10;;;;;;;14.27;100.00;98475.66;6288418;22;20023;-93
2023/12/12 06:11:02;;;;;;;6.80;2.30;;;;;;;13.90;100.00;98386.47;6289946;22;20025;-92
2023/12/12 06:13:28;;;;;;;9.02;2.67;;;;;;;13.97;100.00;98377.25;6290385;22;20153;-91
2023/12/12 06:15:56;;;;;;;8.18;2.03;;;;;;;14.24;100.00;98423.19;6287365;22;20034;-91
2023/12/12 06:18:25;;;;;;;5.97;2.00;;;;;;;14.24;100.00;98449.94;6289612;22;20015;-94
2023/12/12 06:20:53;;;;;;;7.65;2.35;;;;;;;13.98;100.00;98400.38;6314470;22;20019;-93
2023/12/12 06:23:19;;;;;;;7.72;2.22;;;;;;;14.03;100.00;98424.19;6289597;22;20027;-93
2023/12/12 06:25:46;;;;;;;7.60;2.20;;;;;;;14.35;100.00;98462.81;6288375;22;20006;-91
2023/12/12 06:28:12;;;;;;;8.82;1.90;;;;;;;13.88;100.00;98401.72;6287141;22;20015;-94
2023/12/12 06:30:38;;;;;;;8.27;2.40;;;;;;;13.90;100.00;98402.53;6286710;22;20022;-92
2023/12/12 06:33:05;;;;;;;10.18;2.45;;;;;;;13.68;100.00;98405.31;6291552;22;20023;-95
2023/12/12 06:35:31;;;;;;;9.20;2.47;;;;;;;13.55;100.00;98394.31;6289712;22;20026;-93
2023/12/12 06:38:08;;;;;;;9.55;2.53;;;;;;;14.02;100.00;98463.44;6288403;22;20026;-94
2023/12/12 06:40:54;;;;;;;15.10;3.80;;;;;;;14.21;100.00;98492.03;6287798;22;20015;-92
2023/12/12 06:43:20;;;;;;;6.70;3.00;;;;;;;13.97;100.00;98441.41;6288153;22;20027;-94
2023/12/12 06:45:46;;;;;;;7.53;2.20;;;;;;;13.93;100.00;98448.69;6286991;22;20046;-92
2023/12/12 06:48:12;;;;;;;9.75;3.28;;;;;;;14.29;100.00;98521.94;6288949;22;20038;-95
2023/12/12 06:50:38;;;;;;;8.95;2.95;;;;;;;14.61;100.00;98603.41;6289300;22;20023;-94
2023/12/12 06:53:05;;;;;;;6.53;2.20;;;;;;;13.79;100.00;98431.56;6288344;22;20033;-93
2023/12/12 06:55:51;;;;;;;13.32;2.33;;;;;;;14.68;100.00;98572.78;6287271;22;20026;-90
2023/12/12 06:58:22;;;;;;;11.55;2.67;;;;;;;14.02;100.00;98473.28;6286608;22;20015;-93
2023/12/12 07:00:48;;;;;;;9.18;2.78;;;;;;;14.83;100.00;98575.66;6283603;22;20018;-92
2023/12/12 07:03:14;;;;;;;6.05;2.38;;;;;;;14.44;100.00;98528.38;6285318;22;20106;-93
2023/12/12 07:05:40;;;;;;;8.45;2.72;;;;;;;14.37;100.00;98514.44;6295059;22;20019;-94
2023/12/12 07:08:08;;;;;;;12.80;2.88;;;;;;;14.22;100.00;98469.69;6288651;22;20019;-92
2023/12/12 07:10:34;;;;;;;11.35;2.88;;;;;;;14.70;100.00;98553.94;6287700;22;20027;-93
2023/12/12 07:13:05;;;;;;;7.15;2.53;;;;;;;14.41;100.00;98515.16;6286222;22;20502;-93
2023/12/12 07:15:45;;;;;;;13.18;4.50;;;;;;;14.92;100.00;98615.38;6282421;22;20030;-96
2023/12/12 07:18:14;;;;;;;17.52;4.82;;;;;;;14.37;100.00;98498.38;6285576;22;20019;-94
2023/12/12 07:20:41;;;;;;;14.18;4.13;;;;;;;14.51;100.00;98549.44;6286626;22;20015;-95
2023/12/12 07:23:15;;;;;;;8.20;3.00;;;;;;;15.00;100.00;98608.72;6285580;22;20015;-95
2023/12/12 07:25:46;;;;;;;6.25;2.20;;;;;;;14.71;100.00;98550.34;6286025;22;20019;-93
2023/12/12 07:28:24;;;;;;;5.35;2.92;;;;;;;14.76;100.00;98602.72;6285664;22;20016;-95
2023/12/12 07:30:50;;;;;;;9.35;2.83;;;;;;;14.72;100.00;98569.00;6283452;22;20068;-93
2023/12/12 07:33:20;;;;;;;8.95;2.75;;;;;;;14.35;100.00;98502.94;6285934;22;20015;-91
2023/12/12 07:35:49;;;;;;;10.63;2.10;;;;;;;14.46;100.00;98508.63;6285006;22;20020;-94
2023/12/12 07:38:22;;;;;;;8.23;2.67;;;;;;;14.93;100.00;98591.22;6287070;22;20019;-93
2023/12/12 07:40:48;;;;;;;8.73;2.58;;;;;;;14.84;100.00;98582.75;6292282;22;20030;-94
2023/12/12 07:43:14;;;;;;;9.95;2.92;;;;;;;14.02;100.00;98503.56;6322697;22;20038;-91
2023/12/12 07:45:43;;;;;;;12.50;2.45;;;;;;;14.04;100.00;98464.25;6319124;22;20071;-91
2023/12/12 07:48:09;;;;;;;7.63;2.20;;;;;;;14.33;100.00;98545.81;6322693;22;20019;-94
2023/12/12 07:50:40;;;;;;;11.43;3.17;;;;;;;14.52;100.00;98583.28;6318257;22;20025;-92
2023/12/12 07:53:06;;;;;;;8.68;2.03;;;;;;;14.26;100.00;98500.69;6317842;22;20019;-94
2023/12/12 07:55:37;;;;;;;5.60;2.42;;;;;;;15.06;100.00;98630.81;6316840;22;20342;-92
2023/12/12 07:58:03;;;;;;;10.40;3.15;;;;;;;14.69;100.00;98571.81;6316815;22;20050;-93
2023/12/12 08:00:29;;;;;;;10.05;2.17;;;;;;;14.21;100.00;98508.94;6313191;22;20038;-92
2023/12/12 08:03:06;;;;;;;9.88;2.55;;;;;;;14.75;100.00;98582.25;6314656;22;20118;-93
2023/12/12 08:05:32;;;;;;;7.90;2.50;;;;;;;14.47;100.00;98553.19;6315740;22;20019;-93
2023/12/12 08:08:11;;;;;;;6.32;2.38;;;;;;;14.36;100.00;98512.72;6317050;22;20021;-93
2023/12/12 08:10:50;;;;;;;7.18;2.88;;;;;;;14.30;100.00;98513.00;6317039;22;20082;-95
2023/12/12 08:13:16;;;;;;;10.63;2.28;;;;;;;15.03;100.00;98630.94;6318769;22;20103;-94
2023/12/12 08:15:42;;;;;;;9.10;2.97;;;;;;;14.65;100.00;98535.44;6314097;22;20018;-95
2023/12/12 08:18:14;;;;;;;13.35;4.03;;;;;;;14.50;100.00;98512.06;6348309;22;20021;-92
2023/12/12 08:20:40;;;;;;;8.80;3.22;;;;;;;14.44;100.00;98505.16;6313932;22;20023;-92
2023/12/12 08:23:09;;;;;;;15.98;4.82;;;;;;;14.67;100.00;98505.94;6313527;22;20023;-93
2023/12/12 08:25:42;;;;;;;8.10;2.85;;;;;;;15.27;100.00;98656.56;6313975;22;20110;-92
2023/12/12 08:28:10;;;;;;;11.82;2.92;;;;;;;14.77;100.00;98507.25;6313500;22;20121;-93
2023/12/12 08:30:42;;;;;;;11.65;3.05;;;;;;;15.62;100.00;98643.25;6337891;22;20010;-94
2023/12/12 08:33:09;;;;;;;11.30;2.88;;;;;;;15.06;100.00;98558.50;6313435;22;20026;-91
2023/12/12 08:35:38;;;;;;;7.18;2.50;;;;;;;15.82;100.00;98636.91;6314532;22;20063;-92
2023/12/12 08:38:07;;;;;;;9.40;2.90;;;;;;;15.57;100.00;98583.63;6342525;22;20015;-94
2023/12/12 08:40:33;;;;;;;9.27;2.65;;;;;;;15.51;100.00;98571.44;6316053;22;20502;-93
2023/12/12 08:43:00;;;;;;;12.15;2.50;;;;;;;15.18;100.00;98521.28;6315722;22;20015;-93
2023/12/12 08:45:26;;;;;;;7.68;2.15;;;;;;;15.51;100.00;98570.56;6310613;22;20019;-94
2023/12/12 08:48:00;;;;;;;10.23;3.03;;;;;;;15.65;100.00;98618.09;6314353;22;20019;-90
2023/12/12 08:50:26;;;;;;;9.65;3.45;;;;;;;15.11;100.00;98516.28;6314040;22;20678;-91
2023/12/12 08:53:02;;;;;;;12.07;3.15;;;;;;;15.94;100.00;98662.22;6311688;22;20023;-93
2023/12/12 08:55:29;;;;;;;7.53;2.47;;;;;;;15.94;100.00;98662.22;6313385;22;20023;-93
2023/12/12 08:57:55;;;;;;;7.97;3.00;;;;;;;15.84;100.00;98615.41;6315022;22;20041;-94
2023/12/12 09:00:25;;;;;;;13.40;2.80;;;;;;;15.94;100.00;98628.25;6310288;22;20103;-92
2023/12/12 09:03:00;;;;;;;10.77;2.60;;;;;;;15.29;100.00;98504.66;6313744;22;20022;-93
2023/12/12 09:05:36;;;;;;;;;;;;;;;;;;;;;
2023/12/12 09:08:03;;;;;;;6.57;2.50;;;;;;;16.14;100.00;98621.00;6315573;22;20015;-91
2023/12/12 09:10:36;;;;;;;10.07;3.50;;;;;;;16.31;100.00;98629.03;6313919;22;20445;-94
2023/12/12 09:13:08;;;;;;;;;;;;;;;16.49;100.00;98634.38;6315200;22;20019;-92
2023/12/12 09:15:36;;;;;;;14.85;2.97;;;;;;;16.49;100.00;98618.25;6310208;22;19946;-93
2023/12/12 09:18:02;;;;;;;7.55;2.67;;;;;;;15.87;100.00;98513.34;6312638;22;20448;-93
2023/12/12 09:20:28;;;;;;;7.07;2.50;;;;;;;16.44;100.00;98597.03;6313783;22;20019;-92
2023/12/12 09:22:54;;;;;;;7.07;2.88;;;;;;;15.75;100.00;98491.59;6313367;22;20064;-91
2023/12/12 09:25:20;;;;;;;18.58;3.22;;;;;;;16.52;100.00;98605.53;6313437;22;20054;-93
2023/12/12 09:27:46;;;;;;;12.38;3.60;;;;;;;16.16;100.00;98554.72;6313007;22;20023;-91
2023/12/12 09:30:12;;;;;;;14.93;2.53;;;;;;;16.77;100.00;98626.56;6311782;22;20043;-92
2023/12/12 09:32:39;;;;;;;7.00;2.45;;;;;;;16.28;100.00;98551.38;6314827;22;20019;-90
2023/12/12 09:35:06;;;;;;;10.85;2.67;;;;;;;16.67;100.00;98630.69;6314981;22;20019;-92
2023/12/12 09:37:32;;;;;;;7.38;2.92;;;;;;;16.28;100.00;98540.63;6314420;22;20018;-92
2023/12/12 09:40:00;;;;;;;5.13;2.53;;;;;;;15.95;100.00;98493.22;6315027;22;20019;-94
2023/12/12 09:42:30;;;;;;;7.85;2.30;;;;;;;16.14;100.00;98532.47;6315629;22;20023;-92
2023/12/12 09:45:01;;;;;;;8.82;2.25;;;;;;;16.38;100.00;98532.97;6343168;22;20014;-93
2023/12/12 09:47:28;;;;;;;7.25;2.83;;;;;;;16.51;100.00;98565.38;6313343;22;20019;-93
2023/12/12 09:49:57;;;;;;;9.68;3.25;;;;;;;16.67;100.00;98593.09;6313416;22;20018;-90
2023/12/12 09:52:29;;;;;;;9.00;2.78;;;;;;;16.55;100.00;98542.78;6313777;22;20015;-92
2023/12/12 09:54:57;;;;;;;12.52;2.35;;;;;;;17.06;100.00;98591.00;6314877;22;20015;-92
2023/12/12 09:57:24;;;;;;;6.70;1.85;;;;;;;17.31;100.00;98615.53;6314657;22;20018;-92
2023/12/12 09:59:53;;;;;;;7.60;2.45;;;;;;;16.95;100.00;98556.69;6341145;22;20488;-91
2023/12/12 10:02:24;;;;;;;5.35;2.20;;;;;;;16.25;100.00;98491.66;6338840;22;20021;-93
2023/12/12 10:04:55;;;;;;;8.15;2.47;;;;;;;17.23;100.00;98623.16;6342427;22;20015;-93
2023/12/12 10:07:24;;;;;;;7.25;2.40;;;;;;;16.89;100.00;98581.19;6313976;22;20445;-93
2023/12/12 10:09:50;;;;;;;3.78;2.28;;;;;;;16.97;100.00;98590.56;6315415;22;20021;-93
2023/12/12 10:12:16;;;;;;;8.02;2.33;;;;;;;16.33;100.00;98475.97;6314382;22;20456;-92
2023/12/12 10:14:44;;;;;;;6.57;2.15;;;;;;;16.43;100.00;98463.78;6315057;22;20040;-91
2023/12/12 10:17:11;;;;;;;7.53;1.88;;;;;;;16.91;100.00;98542.56;6311023;22;20109;-93
2023/12/12 10:19:37;;;;;;;8.52;1.85;;;;;;;17.00;100.00;98542.06;6342294;22;20011;-92
2023/12/12 10:22:06;;;;;;;6.85;2.10;;;;;;;16.62;100.00;98456.44;6314852;22;20487;-92
2023/12/12 10:24:33;;;;;;;6.80;1.52;;;;;;;17.18;100.00;98536.59;6314871;22;20076;-93
2023/12/12 10:26:59;;;;;;;8.98;1.92;;;;;;;17.43;100.00;98573.63;6313884;22;20097;-92
2023/12/12 10:29:25;;;;;;;4.78;1.80;;;;;;;16.75;100.00;98461.13;6314397;22;20022;-91
2023/12/12 10:31:57;;;;;;;6.68;1.42;;;;;;;17.31;100.00;98537.59;6311276;22;20444;-90
2023/12/12 10:34:27;;;;;;;5.85;2.10;;;;;;;17.41;100.00;98562.09;6315513;22;20320;-92
2023/12/12 10:36:57;;;;;;;6.40;1.65;;;;;;;17.11;100.00;98528.00;6315367;22;20019;-92
2023/12/12 10:39:32;;;;;;;8.52;3.20;;;;;;;16.55;100.00;98422.84;6315673;22;20349;-92
2023/12/12 10:42:02;;;;;;;8.45;2.22;;;;;;;16.81;100.00;98437.50;6315590;22;20003;-95
2023/12/12 10:45:35;;;;;;;;;;;;;;;;;;;;;
2023/12/12 10:48:48;;;;;;;;;;;;;;;;;;;;;
2023/12/12 10:52:37;;;;;;;4.05;1.67;;;;;;;17.27;100.00;98419.63;6244976;22;20068;-92
2023/12/12 10:55:19;;;;;;;6.13;2.30;;;;;;;17.43;100.00;98431.16;6253102;22;20014;-92
2023/12/12 10:58:13;;;;;;;7.35;2.00;;;;;;;18.42;100.00;98556.03;6343065;22;20014;-91
2023/12/12 11:00:47;;;;;;;5.38;1.50;;;;;;;18.37;100.00;98557.28;6314422;22;20476;-92
2023/12/12 11:03:24;;;;;;;5.57;1.80;;;;;;;17.71;100.00;98430.34;6316957;22;20023;-94
2023/12/12 11:06:05;;;;;;;5.28;1.73;;;;;;;18.05;100.00;98476.72;6317719;22;20106;-92
2023/12/12 11:08:35;;;;;;;5.95;2.97;;;;;;;18.62;100.00;98561.97;6317403;22;20408;-93
2023/12/12 11:11:19;;;;;;;4.03;1.35;;;;;;;17.84;100.00;98457.38;6318475;22;20025;-92
2023/12/12 11:14:08;;;;;;;7.28;1.98;;;;;;;17.73;100.00;98423.03;6318626;22;20383;-92
2023/12/12 11:16:44;;;;;;;9.07;1.83;;;;;;;17.64;100.00;98415.56;6299335;22;20033;-94
2023/12/12 11:19:28;;;;;;;6.28;2.10;;;;;;;18.13;100.00;98533.63;6318548;22;20014;-94
2023/12/12 11:21:54;;;;;;;6.13;1.77;;;;;;;17.42;100.00;98467.09;6318251;22;20022;-93
2023/12/12 11:24:21;;;;;;;5.07;1.95;;;;;;;17.66;100.00;98488.94;6319459;22;20018;-91
2023/12/12 11:27:17;;;;;;;7.15;1.80;;;;;;;17.94;100.00;98551.84;6315768;22;20504;-92
2023/12/12 11:29:43;;;;;;;;;;;;;;;17.72;100.00;98542.34;6316338;22;20025;-94
2023/12/12 11:32:18;;;;;;;8.20;2.63;;;;;;;16.86;100.00;98404.13;6313584;22;19918;-95
2023/12/12 11:34:53;;;;;;;9.25;1.88;;;;;;;17.40;100.00;98502.09;6317553;22;20023;-91
2023/12/12 11:38:11;;;;;;;4.65;1.83;;;;;;;17.57;100.00;98545.97;6315792;22;20024;-93
2023/12/12 11:40:42;;;;;;;16.52;2.15;;;;;;;17.60;100.00;98553.81;6313598;22;20011;-94
2023/12/12 11:43:35;;;;;;;6.35;1.63;;;;;;;17.48;100.00;98541.09;6313759;22;20026;-94
2023/12/12 11:46:15;;;;;;;9.88;4.50;;;;;;;17.19;100.00;98489.94;6310469;22;20018;-94
2023/12/12 11:48:44;;;;;;;8.10;2.03;;;;;;;17.58;100.00;98536.91;6312071;22;20050;-93
2023/12/12 11:51:53;;;;;;;4.97;1.70;;;;;;;17.30;100.00;98490.16;6314314;22;20021;-94
2023/12/12 11:54:25;;;;;;;2.63;1.15;;;;;;;17.02;100.00;98459.56;6189748;23;20050;-94